createdAt,value
2017-04-21T00:00:12.322Z,76.80
2017-04-21T00:01:12.229Z,77.40
2017-04-21T00:02:11.518Z,78.00
2017-04-21T00:03:12.948Z,78.40
2017-04-21T00:04:12.875Z,78.20
2017-04-21T00:05:15.932Z,78.20
2017-04-21T00:06:17.844Z,78.30
2017-04-21T00:07:17.450Z,78.20
2017-04-21T00:08:17.617Z,77.60
2017-04-21T00:09:16.685Z,77.60
2017-04-21T00:10:18.221Z,77.60
2017-04-21T00:11:18.303Z,77.30
2017-04-21T00:12:20.898Z,77.60
2017-04-21T00:13:20.484Z,77.80
2017-04-21T00:14:20.372Z,78.00
2017-04-21T00:15:22.596Z,77.70
2017-04-21T00:16:21.661Z,77.70
2017-04-21T00:17:21.073Z,77.60
2017-04-21T00:18:21.362Z,77.60
2017-04-21T00:19:34.632Z,77.60
2017-04-21T00:20:34.044Z,78.10
2017-04-21T00:21:36.071Z,77.90
2017-04-21T00:22:35.719Z,78.10
2017-04-21T00:23:34.723Z,78.50
2017-04-21T00:24:34.032Z,78.60
2017-04-21T00:25:33.528Z,78.60
2017-04-21T00:26:32.465Z,78.50
2017-04-21T00:27:32.386Z,78.50
2017-04-21T00:28:30.948Z,78.20
2017-04-21T00:29:30.153Z,77.40
2017-04-21T00:30:29.146Z,77.70
2017-04-21T00:31:28.059Z,77.60
2017-04-21T00:32:27.019Z,77.90
2017-04-21T00:33:26.202Z,78.30
2017-04-21T00:34:25.147Z,78.40
2017-04-21T00:35:24.047Z,78.50
2017-04-21T00:36:22.968Z,78.70
2017-04-21T00:37:22.291Z,78.70
2017-04-21T00:38:20.812Z,78.70
2017-04-21T00:39:20.144Z,78.30
2017-04-21T00:40:19.060Z,78.70
2017-04-21T00:41:18.311Z,78.80
2017-04-21T00:42:17.223Z,79.00
2017-04-21T00:43:16.366Z,78.90
2017-04-21T00:44:15.340Z,79.10
2017-04-21T00:45:14.577Z,79.20
2017-04-21T00:46:13.695Z,79.20
2017-04-21T00:47:12.576Z,79.00
2017-04-21T00:48:11.659Z,78.90
2017-04-21T00:49:10.588Z,78.90
2017-04-21T00:50:09.502Z,78.80
2017-04-21T00:51:08.426Z,79.00
2017-04-21T00:52:07.332Z,79.10
2017-04-21T00:53:06.294Z,79.50
2017-04-21T00:54:04.844Z,79.50
2017-04-21T00:55:03.801Z,79.10
2017-04-21T00:56:02.359Z,79.10
2017-04-21T00:57:01.332Z,79.50
2017-04-21T00:57:59.843Z,79.50
2017-04-21T00:58:59.134Z,79.80
2017-04-21T00:59:57.696Z,79.80
2017-04-21T01:00:56.726Z,79.90
2017-04-21T01:01:55.612Z,79.50
2017-04-21T01:02:54.553Z,79.80
2017-04-21T01:03:53.844Z,80.00
2017-04-21T01:04:52.372Z,80.00
2017-04-21T01:05:51.769Z,79.80
2017-04-21T01:06:50.728Z,80.00
2017-04-21T01:07:49.337Z,80.00
2017-04-21T01:08:48.264Z,79.60
2017-04-21T01:09:47.159Z,79.30
2017-04-21T01:10:46.115Z,79.20
2017-04-21T01:11:45.460Z,79.40
2017-04-21T01:12:44.433Z,79.30
2017-04-21T01:13:43.455Z,79.10
2017-04-21T01:14:42.752Z,79.00
2017-04-21T01:15:41.671Z,79.20
2017-04-21T01:16:40.634Z,79.10
2017-04-21T01:17:39.579Z,79.00
2017-04-21T01:18:38.874Z,78.70
2017-04-21T01:19:38.378Z,79.00
2017-04-21T01:20:37.800Z,79.20
2017-04-21T01:21:36.755Z,79.20
2017-04-21T01:22:35.258Z,79.10
2017-04-21T01:23:34.240Z,79.40
2017-04-21T01:24:33.920Z,79.20
2017-04-21T01:25:32.844Z,79.10
2017-04-21T01:26:31.931Z,79.10
2017-04-21T01:27:30.834Z,79.20
2017-04-21T01:28:29.744Z,79.00
2017-04-21T01:29:29.023Z,79.10
2017-04-21T01:30:27.717Z,79.10
2017-04-21T01:31:26.661Z,79.50
2017-04-21T01:32:25.589Z,79.60
2017-04-21T01:33:24.489Z,79.90
2017-04-21T01:34:23.152Z,79.90
2017-04-21T01:35:22.058Z,79.90
2017-04-21T01:36:20.963Z,80.10
2017-04-21T01:37:19.896Z,80.00
2017-04-21T01:38:18.842Z,79.90
2017-04-21T01:39:17.730Z,79.80
2017-04-21T01:40:17.103Z,79.60
2017-04-21T01:41:15.864Z,79.60
2017-04-21T01:42:14.778Z,79.90
2017-04-21T01:43:13.712Z,79.80
2017-04-21T01:44:12.617Z,79.90
2017-04-21T01:45:11.636Z,79.90
2017-04-21T01:46:10.919Z,79.90
2017-04-21T01:47:09.839Z,80.20
2017-04-21T01:48:08.864Z,80.30
2017-04-21T01:49:07.412Z,80.30
2017-04-21T01:50:06.431Z,80.30
2017-04-21T01:51:04.985Z,80.30
2017-04-21T01:52:03.947Z,80.30
2017-04-21T01:53:02.872Z,80.30
2017-04-21T01:54:01.752Z,80.40
2017-04-21T01:55:00.669Z,80.30
2017-04-21T01:55:59.602Z,80.10
2017-04-21T01:56:58.544Z,80.20
2017-04-21T01:57:57.081Z,80.20
2017-04-21T01:58:56.440Z,79.70
2017-04-21T01:59:55.373Z,78.90
2017-04-21T02:00:55.121Z,78.90
2017-04-21T02:01:54.070Z,78.80
2017-04-21T02:02:52.982Z,78.80
2017-04-21T02:03:52.157Z,79.50
2017-04-21T02:04:51.099Z,80.00
2017-04-21T02:05:50.059Z,80.50
2017-04-21T02:06:49.078Z,80.50
2017-04-21T02:07:48.565Z,80.60
2017-04-21T02:08:47.064Z,80.60
2017-04-21T02:09:46.036Z,80.50
2017-04-21T02:10:44.960Z,79.90
2017-04-21T02:11:43.902Z,79.50
2017-04-21T02:12:42.818Z,79.90
2017-04-21T02:13:41.803Z,80.30
2017-04-21T02:14:40.740Z,80.60
2017-04-21T02:15:39.677Z,80.60
2017-04-21T02:16:38.665Z,80.60
2017-04-21T02:17:37.657Z,80.40
2017-04-21T02:18:37.020Z,80.40
2017-04-21T02:19:35.969Z,80.60
2017-04-21T02:20:35.361Z,80.30
2017-04-21T02:21:34.275Z,80.30
2017-04-21T02:22:32.833Z,80.30
2017-04-21T02:23:31.729Z,79.70
2017-04-21T02:24:30.742Z,80.00
2017-04-21T02:25:30.428Z,80.20
2017-04-21T02:26:28.939Z,80.20
2017-04-21T02:27:27.842Z,80.30
2017-04-21T02:28:26.798Z,80.60
2017-04-21T02:29:25.717Z,80.20
2017-04-21T02:30:24.651Z,80.70
2017-04-21T02:31:23.624Z,80.70
2017-04-21T02:32:22.627Z,80.10
2017-04-21T02:33:21.516Z,80.30
2017-04-21T02:34:20.420Z,80.40
2017-04-21T02:35:20.500Z,80.60
2017-04-21T02:36:19.321Z,80.60
2017-04-21T02:37:18.246Z,79.80
2017-04-21T02:38:17.179Z,79.60
2017-04-21T02:39:16.205Z,80.10
2017-04-21T02:40:15.522Z,80.50
2017-04-21T02:41:14.065Z,80.50
2017-04-21T02:42:12.656Z,80.90
2017-04-21T02:43:11.603Z,81.20
2017-04-21T02:44:10.509Z,81.40
2017-04-21T02:45:09.459Z,81.60
2017-04-21T02:46:08.503Z,81.70
2017-04-21T02:47:07.476Z,81.80
2017-04-21T02:48:06.284Z,81.80
2017-04-21T02:49:05.512Z,81.40
2017-04-21T02:50:04.601Z,81.40
2017-04-21T02:51:03.564Z,81.40
2017-04-21T02:52:02.875Z,81.50
2017-04-21T02:53:02.153Z,81.50
2017-04-21T02:54:01.098Z,81.90
2017-04-21T02:55:00.020Z,81.90
2017-04-21T02:55:58.551Z,81.90
2017-04-21T02:56:57.506Z,82.10
2017-04-21T02:57:56.763Z,82.10
2017-04-21T02:58:55.676Z,82.00
2017-04-21T02:59:54.607Z,81.90
2017-04-21T03:00:53.566Z,82.10
2017-04-21T03:01:52.489Z,82.10
2017-04-21T03:02:51.791Z,82.20
2017-04-21T03:03:50.801Z,82.20
2017-04-21T03:04:49.725Z,82.30
2017-04-21T03:05:48.624Z,82.40
2017-04-21T03:06:47.547Z,82.30
2017-04-21T03:07:46.447Z,82.30
2017-04-21T03:08:44.961Z,82.30
2017-04-21T03:09:44.249Z,82.00
2017-04-21T03:10:43.548Z,81.90
2017-04-21T03:11:42.830Z,81.80
2017-04-21T03:12:41.356Z,81.90
2017-04-21T03:13:40.423Z,81.50
2017-04-21T03:14:39.327Z,81.30
2017-04-21T03:15:38.524Z,81.00
2017-04-21T03:16:37.874Z,81.10
2017-04-21T03:17:36.783Z,81.20
2017-04-21T03:18:35.711Z,81.70
2017-04-21T03:19:35.004Z,81.70
2017-04-21T03:20:33.976Z,82.10
2017-04-21T03:21:33.113Z,82.20
2017-04-21T03:22:32.008Z,82.00
2017-04-21T03:23:30.940Z,81.90
2017-04-21T03:24:29.865Z,81.90
2017-04-21T03:25:28.780Z,81.90
2017-04-21T03:26:27.687Z,82.00
2017-04-21T03:27:27.163Z,82.20
2017-04-21T03:28:26.453Z,82.30
2017-04-21T03:29:25.746Z,82.40
2017-04-21T03:30:24.641Z,82.40
2017-04-21T03:31:23.947Z,82.60
2017-04-21T03:32:22.872Z,82.80
2017-04-21T03:33:22.063Z,82.60
2017-04-21T03:34:20.989Z,82.80
2017-04-21T03:35:19.884Z,83.00
2017-04-21T03:36:18.827Z,83.20
2017-04-21T03:37:18.130Z,83.20
2017-04-21T03:38:17.044Z,83.00
2017-04-21T03:39:15.976Z,83.00
2017-04-21T03:40:14.508Z,83.30
2017-04-21T03:41:13.464Z,83.30
2017-04-21T03:42:12.374Z,83.20
2017-04-21T03:43:11.279Z,83.40
2017-04-21T03:44:10.180Z,82.90
2017-04-21T03:45:09.348Z,82.70
2017-04-21T03:46:07.857Z,82.80
2017-04-21T03:47:06.763Z,83.50
2017-04-21T03:48:05.701Z,83.60
2017-04-21T03:49:04.961Z,83.50
2017-04-21T03:50:03.958Z,83.40
2017-04-21T03:51:03.248Z,83.60
2017-04-21T03:52:01.803Z,83.60
2017-04-21T03:53:00.375Z,83.70
2017-04-21T03:53:59.288Z,83.50
2017-04-21T03:54:58.239Z,83.30
2017-04-21T03:55:57.156Z,82.80
2017-04-21T03:56:56.437Z,82.80
2017-04-21T03:57:54.975Z,82.30
2017-04-21T03:58:53.905Z,82.40
2017-04-21T03:59:52.441Z,82.40
2017-04-21T04:00:51.779Z,83.20
2017-04-21T04:01:50.712Z,83.20
2017-04-21T04:02:50.424Z,83.10
2017-04-21T04:03:49.685Z,83.40
2017-04-21T04:04:48.608Z,83.60
2017-04-21T04:05:47.532Z,83.50
2017-04-21T04:06:46.456Z,83.70
2017-04-21T04:07:45.863Z,84.00
2017-04-21T04:08:45.144Z,84.20
2017-04-21T04:09:44.089Z,84.50
2017-04-21T04:10:42.644Z,84.50
2017-04-21T04:11:41.575Z,84.60
2017-04-21T04:12:40.484Z,84.60
2017-04-21T04:13:39.452Z,84.10
2017-04-21T04:14:39.040Z,84.00
2017-04-21T04:15:37.953Z,84.10
2017-04-21T04:16:39.452Z,84.10
2017-04-21T04:17:38.386Z,84.30
2017-04-21T04:18:37.307Z,84.40
2017-04-21T04:19:36.216Z,84.50
2017-04-21T04:20:35.499Z,84.60
2017-04-21T04:21:34.786Z,84.60
2017-04-21T04:22:34.159Z,84.60
2017-04-21T04:23:33.459Z,84.80
2017-04-21T04:24:32.846Z,85.00
2017-04-21T04:25:31.829Z,85.00
2017-04-21T04:26:30.627Z,85.00
2017-04-21T04:27:29.535Z,85.50
2017-04-21T04:28:28.536Z,85.70
2017-04-21T04:29:27.446Z,85.60
2017-04-21T04:30:26.360Z,85.60
2017-04-21T04:31:25.264Z,85.60
2017-04-21T04:32:24.100Z,85.60
2017-04-21T04:33:22.599Z,85.70
2017-04-21T04:34:21.525Z,85.60
2017-04-21T04:35:20.464Z,85.60
2017-04-21T04:36:19.411Z,85.60
2017-04-21T04:37:18.618Z,85.20
2017-04-21T04:38:18.151Z,85.20
2017-04-21T04:39:17.074Z,85.40
2017-04-21T04:40:16.004Z,85.20
2017-04-21T04:41:14.919Z,85.30
2017-04-21T04:42:13.954Z,85.10
2017-04-21T04:43:12.853Z,84.70
2017-04-21T04:44:11.975Z,84.60
2017-04-21T04:45:10.934Z,84.70
2017-04-21T04:46:09.889Z,84.60
2017-04-21T04:47:08.915Z,84.50
2017-04-21T04:48:07.870Z,84.60
2017-04-21T04:49:06.393Z,84.60
2017-04-21T04:50:05.707Z,84.30
2017-04-21T04:51:05.020Z,84.70
2017-04-21T04:52:03.560Z,84.70
2017-04-21T04:53:02.499Z,84.70
2017-04-21T04:54:01.421Z,84.80
2017-04-21T04:55:00.375Z,84.80
2017-04-21T04:55:59.280Z,84.80
2017-04-21T04:56:58.205Z,84.50
2017-04-21T04:57:57.089Z,84.50
2017-04-21T04:58:56.138Z,83.90
2017-04-21T04:59:54.921Z,83.90
2017-04-21T05:00:53.435Z,83.50
2017-04-21T05:01:52.603Z,83.70
2017-04-21T05:02:51.516Z,84.10
2017-04-21T05:03:50.456Z,84.40
2017-04-21T05:04:49.497Z,84.30
2017-04-21T05:05:49.692Z,84.20
2017-04-21T05:06:48.590Z,83.60
2017-04-21T05:07:49.034Z,83.70
2017-04-21T05:08:48.228Z,83.70
2017-04-21T05:09:47.225Z,83.80
2017-04-21T05:10:45.774Z,83.80
2017-04-21T05:11:44.685Z,84.20
2017-04-21T05:12:43.676Z,83.80
2017-04-21T05:13:42.912Z,84.30
2017-04-21T05:14:41.409Z,84.30
2017-04-21T05:15:40.332Z,83.50
2017-04-21T05:16:39.228Z,83.60
2017-04-21T05:17:38.204Z,82.90
2017-04-21T05:18:36.737Z,82.90
2017-04-21T05:19:36.084Z,83.50
2017-04-21T05:20:34.975Z,82.90
2017-04-21T05:21:33.905Z,83.10
2017-04-21T05:22:32.845Z,83.90
2017-04-21T05:23:32.137Z,84.00
2017-04-21T05:24:30.681Z,84.00
2017-04-21T05:25:29.991Z,84.60
2017-04-21T05:26:28.890Z,84.20
2017-04-21T05:27:27.935Z,83.80
2017-04-21T05:28:26.841Z,83.40
2017-04-21T05:29:25.779Z,82.90
2017-04-21T05:30:24.273Z,82.90
2017-04-21T05:31:23.847Z,82.70
2017-04-21T05:32:22.764Z,82.40
2017-04-21T05:33:22.093Z,81.80
2017-04-21T05:34:21.129Z,81.60
2017-04-21T05:35:20.429Z,81.30
2017-04-21T05:36:18.980Z,81.30
2017-04-21T05:37:18.190Z,81.90
2017-04-21T05:38:16.731Z,81.90
2017-04-21T05:39:15.669Z,81.70
2017-04-21T05:40:14.221Z,81.70
2017-04-21T05:41:13.188Z,80.90
2017-04-21T05:42:12.489Z,81.50
2017-04-21T05:43:11.778Z,81.20
2017-04-21T05:44:10.313Z,81.30
2017-04-21T05:45:09.280Z,81.10
2017-04-21T05:46:08.340Z,81.30
2017-04-21T05:47:06.864Z,81.30
2017-04-21T05:48:05.393Z,80.70
2017-04-21T05:49:04.968Z,80.40
2017-04-21T05:50:03.919Z,80.70
2017-04-21T05:51:02.872Z,80.70
2017-04-21T05:52:01.785Z,80.30
2017-04-21T05:53:00.736Z,80.20
2017-04-21T05:53:59.724Z,80.20
2017-04-21T05:54:59.164Z,80.10
2017-04-21T05:55:58.080Z,79.80
2017-04-21T05:56:57.001Z,79.80
2017-04-21T05:57:56.420Z,80.00
2017-04-21T05:58:55.383Z,79.60
2017-04-21T05:59:54.324Z,79.50
2017-04-21T06:00:53.570Z,79.30
2017-04-21T06:01:52.484Z,79.00
2017-04-21T06:02:51.080Z,79.00
2017-04-21T06:03:49.633Z,78.80
2017-04-21T06:04:48.568Z,78.80
2017-04-21T06:05:47.475Z,78.50
2017-04-21T06:06:46.241Z,78.50
2017-04-21T06:07:44.900Z,78.60
2017-04-21T06:08:45.153Z,78.40
2017-04-21T06:09:43.685Z,78.40
2017-04-21T06:10:42.625Z,77.30
2017-04-21T06:11:41.621Z,77.20
2017-04-21T06:12:40.824Z,77.30
2017-04-21T06:13:39.520Z,77.30
2017-04-21T06:14:38.816Z,76.90
2017-04-21T06:15:38.268Z,76.80
2017-04-21T06:16:37.180Z,77.00
2017-04-21T06:17:36.083Z,77.20
2017-04-21T06:18:35.193Z,76.90
2017-04-21T06:19:34.164Z,76.70
2017-04-21T06:20:32.729Z,76.70
2017-04-21T06:21:31.654Z,77.00
2017-04-21T06:22:31.353Z,76.90
2017-04-21T06:23:31.259Z,76.60
2017-04-21T06:24:30.584Z,76.70
2017-04-21T06:25:29.564Z,76.70
2017-04-21T06:26:28.858Z,77.00
2017-04-21T06:27:30.696Z,76.80
2017-04-21T06:28:29.708Z,76.50
2017-04-21T06:29:28.678Z,76.00
2017-04-21T06:30:28.250Z,76.10
2017-04-21T06:31:26.751Z,76.10
2017-04-21T06:32:25.736Z,76.30
2017-04-21T06:33:24.383Z,76.30
2017-04-21T06:34:23.301Z,75.70
2017-04-21T06:35:22.250Z,75.40
2017-04-21T06:36:21.471Z,74.50
2017-04-21T06:37:20.468Z,74.50
2017-04-21T06:38:22.372Z,74.80
2017-04-21T06:39:22.128Z,74.60
2017-04-21T06:40:21.239Z,74.70
2017-04-21T06:41:20.142Z,74.80
2017-04-21T06:42:19.746Z,75.00
2017-04-21T06:43:19.025Z,74.80
2017-04-21T06:44:17.914Z,74.80
2017-04-21T06:45:16.856Z,74.30
2017-04-21T06:46:15.869Z,74.60
2017-04-21T06:47:15.509Z,74.60
2017-04-21T06:48:14.363Z,74.60
2017-04-21T06:49:13.661Z,74.10
2017-04-21T06:50:12.616Z,74.60
2017-04-21T06:51:11.527Z,75.20
2017-04-21T06:52:10.482Z,74.40
2017-04-21T06:53:10.079Z,74.80
2017-04-21T06:54:23.824Z,74.80
2017-04-21T06:55:24.240Z,74.00
2017-04-21T06:56:27.225Z,74.20
2017-04-21T06:57:29.376Z,73.80
2017-04-21T06:58:28.779Z,73.70
2017-04-21T06:59:28.404Z,74.00
2017-04-21T07:00:27.307Z,74.20
2017-04-21T07:01:27.103Z,73.90
2017-04-21T07:02:27.459Z,73.50
2017-04-21T07:03:26.519Z,73.50
2017-04-21T07:04:25.469Z,74.20
2017-04-21T07:05:24.709Z,73.40
2017-04-21T07:06:23.987Z,73.80
2017-04-21T07:07:23.832Z,73.50
2017-04-21T07:08:22.766Z,73.50
2017-04-21T07:09:22.670Z,73.20
2017-04-21T07:10:21.470Z,73.20
2017-04-21T07:11:22.816Z,73.40
2017-04-21T07:12:21.421Z,73.40
2017-04-21T07:13:20.345Z,72.90
2017-04-21T07:14:19.271Z,72.50
2017-04-21T07:15:18.235Z,72.80
2017-04-21T07:16:16.783Z,72.80
2017-04-21T07:17:18.728Z,71.80
2017-04-21T07:18:17.630Z,71.40
2017-04-21T07:19:30.163Z,71.80
2017-04-21T07:20:29.199Z,71.90
2017-04-21T07:21:28.111Z,71.40
2017-04-21T07:22:27.888Z,70.30
2017-04-21T07:23:26.587Z,70.30
2017-04-21T07:24:25.506Z,70.20
2017-04-21T07:25:24.436Z,70.40
2017-04-21T07:26:23.722Z,70.20
2017-04-21T07:27:22.293Z,70.10
2017-04-21T07:28:21.895Z,70.00
2017-04-21T07:29:21.272Z,70.60
2017-04-21T07:30:21.255Z,70.70
2017-04-21T07:31:20.387Z,70.40
2017-04-21T07:32:18.942Z,70.40
2017-04-21T07:33:18.857Z,69.90
2017-04-21T07:34:18.555Z,70.10
2017-04-21T07:35:17.101Z,70.00
2017-04-21T07:36:15.622Z,70.20
2017-04-21T07:37:14.344Z,69.50
2017-04-21T07:38:13.420Z,70.00
2017-04-21T07:39:12.468Z,68.90
2017-04-21T07:40:11.841Z,68.50
2017-04-21T07:41:10.751Z,68.60
2017-04-21T07:42:09.709Z,68.30
2017-04-21T07:43:08.632Z,68.20
2017-04-21T07:44:08.191Z,68.00
2017-04-21T07:45:07.124Z,68.40
2017-04-21T07:46:06.048Z,68.40
2017-04-21T07:47:05.358Z,68.60
2017-04-21T07:48:04.252Z,68.60
2017-04-21T07:49:02.756Z,68.60
2017-04-21T07:50:01.704Z,68.60
2017-04-21T07:51:00.642Z,68.80
2017-04-21T07:51:59.623Z,68.80
2017-04-21T07:52:58.927Z,68.30
2017-04-21T07:53:57.468Z,68.30
2017-04-21T07:54:56.360Z,68.50
2017-04-21T07:55:55.261Z,68.20
2017-04-21T07:56:54.171Z,67.50
2017-04-21T07:57:53.196Z,67.80
2017-04-21T07:58:52.124Z,67.30
2017-04-21T08:00:20.797Z,67.00
2017-04-21T08:00:50.032Z,67.10
2017-04-21T08:01:48.966Z,66.80
2017-04-21T08:02:47.846Z,66.70
2017-04-21T08:03:47.123Z,66.80
2017-04-21T08:04:45.617Z,66.80
2017-04-21T08:05:44.528Z,67.30
2017-04-21T08:06:43.460Z,66.90
2017-04-21T08:07:42.408Z,66.30
2017-04-21T08:08:41.413Z,66.40
2017-04-21T08:09:40.290Z,66.40
2017-04-21T08:10:39.191Z,67.40
2017-04-21T08:11:38.103Z,67.10
2017-04-21T08:12:37.056Z,66.90
2017-04-21T08:13:35.968Z,66.50
2017-04-21T08:14:34.884Z,65.70
2017-04-21T08:15:33.674Z,65.70
2017-04-21T08:16:32.272Z,65.40
2017-04-21T08:17:30.872Z,65.70
2017-04-21T08:18:29.763Z,67.30
2017-04-21T08:19:28.760Z,66.30
2017-04-21T08:20:27.687Z,65.90
2017-04-21T08:21:26.562Z,65.90
2017-04-21T08:22:25.502Z,64.50
2017-04-21T08:23:24.411Z,64.80
2017-04-21T08:24:23.684Z,64.50
2017-04-21T08:25:22.495Z,64.50
2017-04-21T08:26:21.454Z,63.40
2017-04-21T08:27:21.360Z,64.10
2017-04-21T08:28:20.662Z,63.70
2017-04-21T08:29:19.181Z,63.70
2017-04-21T08:30:18.209Z,64.20
2017-04-21T08:31:17.117Z,63.80
2017-04-21T08:32:15.707Z,63.80
2017-04-21T08:33:14.927Z,62.80
2017-04-21T08:34:13.819Z,63.00
2017-04-21T08:35:12.766Z,63.00
2017-04-21T08:36:11.702Z,63.10
2017-04-21T08:37:10.619Z,63.10
2017-04-21T08:38:09.544Z,62.50
2017-04-21T08:39:08.850Z,62.30
2017-04-21T08:40:08.145Z,62.50
2017-04-21T08:41:06.651Z,62.50
2017-04-21T08:42:05.583Z,62.60
2017-04-21T08:43:04.518Z,62.70
2017-04-21T08:44:03.440Z,62.70
2017-04-21T08:45:03.161Z,62.90
2017-04-21T08:46:01.708Z,62.90
2017-04-21T08:47:00.592Z,62.00
2017-04-21T08:47:59.873Z,62.70
2017-04-21T08:48:58.754Z,62.50
2017-04-21T08:49:57.361Z,62.50
2017-04-21T08:50:56.334Z,62.10
2017-04-21T08:51:55.628Z,61.40
2017-04-21T08:52:54.591Z,61.50
2017-04-21T08:53:53.501Z,61.90
2017-04-21T08:54:52.430Z,61.50
2017-04-21T08:55:51.364Z,61.10
2017-04-21T08:56:50.624Z,61.50
2017-04-21T08:57:49.123Z,61.50
2017-04-21T08:58:48.259Z,60.90
2017-04-21T08:59:48.508Z,61.40
2017-04-21T09:00:47.787Z,60.90
2017-04-21T09:01:46.704Z,61.00
2017-04-21T09:02:45.966Z,60.60
2017-04-21T09:03:44.879Z,60.40
2017-04-21T09:04:43.778Z,60.60
2017-04-21T09:05:42.700Z,60.70
2017-04-21T09:06:41.614Z,60.30
2017-04-21T09:07:40.885Z,60.40
2017-04-21T09:08:40.186Z,59.60
2017-04-21T09:09:39.160Z,58.50
2017-04-21T09:10:38.088Z,57.60
2017-04-21T09:11:37.105Z,56.90
2017-04-21T09:12:36.059Z,57.80
2017-04-21T09:13:34.989Z,56.70
2017-04-21T09:14:34.017Z,56.90
2017-04-21T09:15:33.115Z,58.10
2017-04-21T09:16:32.042Z,58.70
2017-04-21T09:17:30.973Z,59.00
2017-04-21T09:18:29.863Z,58.40
2017-04-21T09:19:28.760Z,58.20
2017-04-21T09:20:28.089Z,58.70
2017-04-21T09:21:26.995Z,58.00
2017-04-21T09:22:25.905Z,58.30
2017-04-21T09:23:24.816Z,58.80
2017-04-21T09:24:23.727Z,58.30
2017-04-21T09:25:22.714Z,58.70
2017-04-21T09:26:21.927Z,59.10
2017-04-21T09:27:20.501Z,59.10
2017-04-21T09:28:19.425Z,59.10
2017-04-21T09:29:18.680Z,58.50
2017-04-21T09:30:17.616Z,57.70
2017-04-21T09:31:48.831Z,57.20
2017-04-21T09:32:15.751Z,57.80
2017-04-21T09:33:29.771Z,58.20
2017-04-21T09:34:13.632Z,57.90
2017-04-21T09:35:34.401Z,57.40
2017-04-21T09:36:11.270Z,57.40
2017-04-21T09:37:10.182Z,58.50
2017-04-21T09:38:09.452Z,58.10
2017-04-21T09:39:08.760Z,58.50
2017-04-21T09:40:07.271Z,58.50
2017-04-21T09:41:06.159Z,58.50
2017-04-21T09:42:04.663Z,58.50
2017-04-21T09:43:03.619Z,58.20
2017-04-21T09:44:02.669Z,58.50
2017-04-21T09:45:01.583Z,58.60
2017-04-21T09:46:00.493Z,58.80
2017-04-21T09:46:59.014Z,58.80
2017-04-21T09:47:57.922Z,58.70
2017-04-21T09:48:56.449Z,58.70
2017-04-21T09:49:55.703Z,58.40
2017-04-21T09:50:54.628Z,58.50
2017-04-21T09:52:52.561Z,58.90
2017-04-21T09:54:07.406Z,58.50
2017-04-21T09:54:49.785Z,59.10
2017-04-21T09:57:02.409Z,57.90
2017-04-21T09:59:48.152Z,58.50
2017-04-21T10:00:43.328Z,58.90
2017-04-21T10:00:48.186Z,58.90
2017-04-21T10:02:32.020Z,57.70
2017-04-21T10:04:21.684Z,58.60
2017-04-21T10:04:22.987Z,58.70
2017-04-21T10:05:03.878Z,58.60
2017-04-21T10:06:18.033Z,57.90
2017-04-21T10:06:47.112Z,58.90
2017-04-21T10:06:51.620Z,58.70
2017-04-21T10:07:40.484Z,57.80
2017-04-21T10:08:06.449Z,57.80
2017-04-21T10:08:26.489Z,58.30
2017-04-21T10:08:35.014Z,57.70
2017-04-21T10:09:33.958Z,58.60
2017-04-21T10:10:32.876Z,58.90
2017-04-21T10:11:31.812Z,57.90
2017-04-21T10:12:30.716Z,58.10
2017-04-21T10:13:29.890Z,57.90
2017-04-21T10:14:28.886Z,58.60
2017-04-21T10:15:28.737Z,58.20
2017-04-21T10:16:27.730Z,57.60
2017-04-21T10:17:26.669Z,57.60
2017-04-21T10:18:25.168Z,57.60
2017-04-21T10:19:24.415Z,58.10
2017-04-21T10:20:23.385Z,58.10
2017-04-21T10:21:22.401Z,57.70
2017-04-21T10:22:21.804Z,57.70
2017-04-21T10:23:20.708Z,57.30
2017-04-21T10:24:19.615Z,57.60
2017-04-21T10:25:18.867Z,57.20
2017-04-21T10:26:17.765Z,57.70
2017-04-21T10:27:16.290Z,57.70
2017-04-21T10:28:15.220Z,57.30
2017-04-21T10:29:13.717Z,57.30
2017-04-21T10:30:12.661Z,57.30
2017-04-21T10:31:12.270Z,57.70
2017-04-21T10:32:10.792Z,57.70
2017-04-21T10:33:09.692Z,57.10
2017-04-21T10:34:08.976Z,57.50
2017-04-21T10:35:07.503Z,57.50
2017-04-21T10:36:06.412Z,58.00
2017-04-21T10:37:05.472Z,58.00
2017-04-21T10:38:04.413Z,57.20
2017-04-21T10:39:03.849Z,57.80
2017-04-21T10:40:02.748Z,57.30
2017-04-21T10:41:01.736Z,58.20
2017-04-21T10:42:00.326Z,58.20
2017-04-21T10:42:59.848Z,57.40
2017-04-21T10:43:58.357Z,57.50
2017-04-21T10:44:57.279Z,57.90
2017-04-21T10:45:55.787Z,57.90
2017-04-21T10:46:54.707Z,56.90
2017-04-21T10:47:53.629Z,57.40
2017-04-21T10:48:52.919Z,57.70
2017-04-21T10:49:51.542Z,57.70
2017-04-21T10:50:50.478Z,57.00
2017-04-21T10:51:49.396Z,56.70
2017-04-21T10:52:48.304Z,57.90
2017-04-21T10:53:47.222Z,58.10
2017-04-21T10:54:46.095Z,58.10
2017-04-21T10:55:44.615Z,56.70
2017-04-21T10:56:43.528Z,56.10
2017-04-21T10:57:42.452Z,56.50
2017-04-21T10:58:41.375Z,56.80
2017-04-21T10:59:39.940Z,56.80
2017-04-21T11:00:39.135Z,56.30
2017-04-21T11:01:38.411Z,56.60
2017-04-21T11:02:37.345Z,57.40
2017-04-21T11:03:36.317Z,57.30
2017-04-21T11:04:35.216Z,56.60
2017-04-21T11:05:33.712Z,56.60
2017-04-21T11:06:32.876Z,56.40
2017-04-21T11:07:31.805Z,56.20
2017-04-21T11:08:30.792Z,56.00
2017-04-21T11:09:30.055Z,56.00
2017-04-21T11:10:29.020Z,55.30
2017-04-21T11:11:27.957Z,55.50
2017-04-21T11:12:27.267Z,54.30
2017-04-21T11:13:26.172Z,54.50
2017-04-21T11:14:25.165Z,55.00
2017-04-21T11:15:24.082Z,55.20
2017-04-21T11:16:23.498Z,56.00
2017-04-21T11:17:22.696Z,55.40
2017-04-21T11:18:22.087Z,55.70
2017-04-21T11:19:21.004Z,56.30
2017-04-21T11:20:19.506Z,56.30
2017-04-21T11:21:18.403Z,55.30
2017-04-21T11:22:17.712Z,55.40
2017-04-21T11:23:16.225Z,55.40
2017-04-21T11:24:15.403Z,57.10
2017-04-21T11:25:14.728Z,57.60
2017-04-21T11:26:17.036Z,56.80
2017-04-21T11:27:15.971Z,55.50
2017-04-21T11:28:14.784Z,55.40
2017-04-21T11:29:13.729Z,56.80
2017-04-21T11:30:12.862Z,56.20
2017-04-21T11:31:11.772Z,55.70
2017-04-21T11:32:10.784Z,55.70
2017-04-21T11:33:09.695Z,56.80
2017-04-21T11:34:08.617Z,57.40
2017-04-21T11:35:07.536Z,57.10
2017-04-21T11:36:07.988Z,56.70
2017-04-21T11:37:06.871Z,57.10
2017-04-21T11:38:05.811Z,56.20
2017-04-21T11:39:04.452Z,56.20
2017-04-21T11:40:02.955Z,55.50
2017-04-21T11:41:01.863Z,56.80
2017-04-21T11:42:01.456Z,56.90
2017-04-21T11:43:00.376Z,56.90
2017-04-21T11:43:59.302Z,56.20
2017-04-21T11:44:57.969Z,56.20
2017-04-21T11:45:56.887Z,56.60
2017-04-21T11:46:55.400Z,56.60
2017-04-21T11:47:54.381Z,56.40
2017-04-21T11:48:53.289Z,57.00
2017-04-21T11:49:52.195Z,56.40
2017-04-21T11:50:51.073Z,57.20
2017-04-21T11:51:52.081Z,56.60
2017-04-21T11:52:53.741Z,55.00
2017-04-21T11:53:57.368Z,54.90
2017-04-21T11:54:56.386Z,56.00
2017-04-21T11:55:55.983Z,55.60
2017-04-21T11:56:54.968Z,55.50
2017-04-21T11:57:54.981Z,55.80
2017-04-21T11:58:57.071Z,56.20
2017-04-21T11:59:56.480Z,56.20
2017-04-21T12:00:55.436Z,56.30
2017-04-21T12:01:54.704Z,56.30
2017-04-21T12:02:53.624Z,56.30
2017-04-21T12:03:52.564Z,56.30
2017-04-21T12:04:52.197Z,56.20
2017-04-21T12:05:50.747Z,56.20
2017-04-21T12:06:49.681Z,57.10
2017-04-21T12:07:48.579Z,57.00
2017-04-21T12:08:48.346Z,57.10
2017-04-21T12:09:47.285Z,57.00
2017-04-21T12:10:46.475Z,57.50
2017-04-21T12:11:45.383Z,57.30
2017-04-21T12:12:43.886Z,57.30
2017-04-21T12:13:42.788Z,57.30
2017-04-21T12:14:41.697Z,56.20
2017-04-21T12:15:40.822Z,56.10
2017-04-21T12:16:40.037Z,55.80
2017-04-21T12:17:38.927Z,54.80
2017-04-21T12:18:38.112Z,55.10
2017-04-21T12:19:37.004Z,55.40
2017-04-21T12:20:35.918Z,55.20
2017-04-21T12:21:34.872Z,55.20
2017-04-21T12:22:34.096Z,56.20
2017-04-21T12:23:33.008Z,55.90
2017-04-21T12:24:31.929Z,55.80
2017-04-21T12:25:30.856Z,56.00
2017-04-21T12:26:29.773Z,55.30
2017-04-21T12:27:28.676Z,55.30
2017-04-21T12:28:27.982Z,55.30
2017-04-21T12:29:26.889Z,56.00
2017-04-21T12:30:25.928Z,55.70
2017-04-21T12:31:24.854Z,55.60
2017-04-21T12:32:23.769Z,55.50
2017-04-21T12:33:22.760Z,55.70
2017-04-21T12:34:22.081Z,55.60
2017-04-21T12:35:20.608Z,55.60
2017-04-21T12:36:19.167Z,55.70
2017-04-21T12:37:18.076Z,55.70
2017-04-21T12:38:17.005Z,55.80
2017-04-21T12:39:15.963Z,55.70
2017-04-21T12:40:15.349Z,55.80
2017-04-21T12:41:13.964Z,55.80